Time;durP1;ratioP1;P1;durP2;ratioP2;P2;SDS_P1;SDS_P2;PMS_P1;PMS_P2;Temp;Humidity;BMP_temperature;BMP_pressure;BME280_temperature;BME280_humidity;BME280_pressure;Samples;Min_cycle;Max_cycle;Signal;HPM_P1;HPM_P2
2023/03/23 00:00:11;;;;;;;5.75;2.50;;;;;;;11.80;100.00;100128.88;5077466;28;20043;-67
2023/03/23 00:02:38;;;;;;;6.60;3.15;;;;;;;11.82;100.00;100126.66;5094191;28;20052;-67
2023/03/23 00:05:08;;;;;;;5.40;2.67;;;;;;;11.82;100.00;100123.94;5077455;28;20054;-66
2023/03/23 00:07:35;;;;;;;5.78;2.72;;;;;;;11.82;100.00;100129.41;5084439;28;20162;-66
2023/03/23 00:10:02;;;;;;;6.05;2.78;;;;;;;11.82;100.00;100134.84;5070250;28;20059;-66
2023/03/23 00:12:34;;;;;;;5.20;2.95;;;;;;;11.82;100.00;100139.50;5076688;28;20496;-66
2023/03/23 00:15:06;;;;;;;3.92;2.55;;;;;;;11.84;100.00;100138.09;5102663;28;20097;-67
2023/03/23 00:17:33;;;;;;;6.45;2.70;;;;;;;11.83;100.00;100130.19;5096801;28;20040;-68
2023/03/23 00:20:03;;;;;;;8.30;2.97;;;;;;;11.83;100.00;100125.53;5114630;28;20044;-68
2023/03/23 00:22:30;;;;;;;6.03;2.67;;;;;;;11.83;100.00;100124.75;5045608;28;20044;-67
2023/03/23 00:24:56;;;;;;;;;;;;;;;11.83;100.00;100139.19;5073596;28;20050;-66
2023/03/23 00:27:24;;;;;;;7.55;2.97;;;;;;;11.80;100.00;100145.25;5063438;28;19920;-66
2023/03/23 00:29:52;;;;;;;5.20;2.72;;;;;;;11.79;100.00;100151.81;5093945;28;20056;-66
2023/03/23 00:32:26;;;;;;;8.60;3.47;;;;;;;11.79;100.00;100149.09;5055947;28;20118;-67
2023/03/23 00:35:00;;;;;;;5.68;2.80;;;;;;;11.80;100.00;100147.16;5079106;28;20043;-67
2023/03/23 00:37:27;;;;;;;6.28;2.92;;;;;;;11.78;100.00;100142.00;5074012;27;20123;-68
2023/03/23 00:39:57;;;;;;;5.20;2.83;;;;;;;11.77;100.00;100134.91;5076170;28;20449;-67
2023/03/23 00:42:24;;;;;;;6.25;2.80;;;;;;;11.78;100.00;100144.72;5112713;27;20039;-67
2023/03/23 00:45:00;;;;;;;6.38;3.10;;;;;;;11.77;100.00;100143.13;5113881;28;20525;-67
2023/03/23 00:47:27;;;;;;;4.82;2.50;;;;;;;11.79;100.00;100146.38;5096542;28;20097;-67
2023/03/23 00:49:56;;;;;;;6.22;3.40;;;;;;;11.78;100.00;100144.72;5114863;27;20104;-67
2023/03/23 00:52:23;;;;;;;6.50;2.80;;;;;;;11.80;100.00;100139.78;5083033;28;20123;-66
2023/03/23 00:54:49;;;;;;;7.53;3.13;;;;;;;11.79;100.00;100134.63;5076364;28;20044;-67
2023/03/23 00:57:17;;;;;;;;;;;;;;;11.85;100.00;100134.25;5096769;28;20047;-66
2023/03/23 00:59:43;;;;;;;5.75;2.67;;;;;;;11.83;100.00;100128.28;5112370;28;20014;-67
2023/03/23 01:02:10;;;;;;;7.65;3.40;;;;;;;11.82;100.00;100134.03;5063036;28;20043;-66
2023/03/23 01:04:44;;;;;;;;;;;;;;;11.81;100.00;100126.94;5113485;28;20487;-66
2023/03/23 01:07:12;;;;;;;5.88;2.75;;;;;;;11.81;100.00;100127.78;5094256;28;19988;-67
2023/03/23 01:09:40;;;;;;;5.25;2.78;;;;;;;11.80;100.00;100103.50;5096940;28;20052;-66
2023/03/23 01:12:07;;;;;;;5.72;2.53;;;;;;;11.80;100.00;100104.31;5096099;28;20077;-66
2023/03/23 01:14:33;;;;;;;5.03;2.72;;;;;;;11.81;100.00;100097.75;5096286;28;20135;-67
2023/03/23 01:17:00;;;;;;;5.72;2.72;;;;;;;11.81;100.00;100089.56;5079579;28;20069;-66
2023/03/23 01:19:26;;;;;;;5.00;2.63;;;;;;;11.83;100.00;100090.06;5112961;28;20043;-67
2023/03/23 01:21:53;;;;;;;5.55;2.60;;;;;;;11.84;100.00;100083.50;5094895;28;20042;-67
2023/03/23 01:24:20;;;;;;;;;;;;;;;11.85;100.00;100065.22;5052815;28;20127;-67
2023/03/23 01:26:47;;;;;;;5.22;2.78;;;;;;;11.82;100.00;100063.09;5110185;28;19920;-67
2023/03/23 01:29:13;;;;;;;4.85;2.65;;;;;;;11.84;100.00;100055.41;5089660;28;20043;-66
2023/03/23 01:31:42;;;;;;;;;;;;;;;11.85;100.00;100055.09;5087369;28;20051;-66
2023/03/23 01:34:10;;;;;;;6.45;3.10;;;;;;;11.84;100.00;100066.34;5115073;28;19926;-65
2023/03/23 01:36:37;;;;;;;5.30;2.75;;;;;;;11.81;100.00;100043.16;5096821;28;20048;-66
2023/03/23 01:39:04;;;;;;;;;;;;;;;11.86;100.00;100054.00;5104958;28;20044;-67
2023/03/23 01:41:32;;;;;;;4.85;2.78;;;;;;;11.85;100.00;100046.91;5077540;28;19919;-66
2023/03/23 01:44:07;;;;;;;5.82;3.10;;;;;;;11.89;100.00;100047.97;5128268;28;20035;-66
2023/03/23 01:46:54;;;;;;;4.72;2.25;;;;;;;11.93;100.00;100038.09;5132446;27;20043;-66
2023/03/23 01:49:34;;;;;;;7.53;3.08;;;;;;;11.91;100.00;100051.22;5091091;28;20453;-67
2023/03/23 01:52:08;;;;;;;3.53;2.20;;;;;;;11.93;100.00;100042.75;5104565;27;20419;-67
2023/03/23 01:54:37;;;;;;;5.93;2.58;;;;;;;11.91;100.00;100040.31;5082864;28;20078;-66
2023/03/23 01:57:07;;;;;;;5.45;2.55;;;;;;;11.94;100.00;100045.16;5063119;28;20040;-67
2023/03/23 01:59:35;;;;;;;4.03;2.45;;;;;;;12.00;100.00;100047.81;5071827;28;20081;-67
2023/03/23 02:02:17;;;;;;;4.47;2.30;;;;;;;11.99;100.00;100033.38;5069593;28;20492;-66
2023/03/23 02:05:07;;;;;;;4.22;2.13;;;;;;;11.94;100.00;100026.06;5122911;27;20039;-66
2023/03/23 02:07:34;;;;;;;5.18;2.50;;;;;;;11.95;100.00;100024.13;5115691;28;20505;-66
2023/03/23 02:10:04;;;;;;;3.38;2.50;;;;;;;12.00;100.00;100015.06;5081468;28;20484;-68
2023/03/23 02:12:34;;;;;;;5.43;2.42;;;;;;;11.99;100.00;100011.53;5112137;27;20050;-66
2023/03/23 02:15:03;;;;;;;4.55;2.70;;;;;;;11.98;100.00;100023.56;5092837;28;20048;-66
2023/03/23 02:17:40;;;;;;;4.90;2.65;;;;;;;11.96;100.00;100014.06;5088498;28;20040;-67
2023/03/23 02:20:17;;;;;;;4.63;2.50;;;;;;;11.94;100.00;100006.94;5116114;27;20044;-66
2023/03/23 02:23:19;;;;;;;4.60;2.53;;;;;;;11.95;100.00;100002.28;5081254;28;20088;-67
2023/03/23 02:26:11;;;;;;;4.50;2.53;;;;;;;11.94;100.00;100012.41;5057510;28;20051;-66
2023/03/23 02:28:49;;;;;;;5.55;2.72;;;;;;;11.93;100.00;100005.34;5114012;27;20047;-67
2023/03/23 02:31:38;;;;;;;6.03;2.70;;;;;;;11.91;100.00;100018.47;5116829;27;20442;-67
2023/03/23 02:34:08;;;;;;;4.47;2.58;;;;;;;11.96;100.00;100014.06;5104111;28;20157;-67
2023/03/23 02:36:43;;;;;;;5.32;3.00;;;;;;;11.92;100.00;100014.63;5080243;27;20391;-66
2023/03/23 02:39:16;;;;;;;4.80;2.80;;;;;;;11.90;100.00;100010.56;5098735;28;20096;-66
2023/03/23 02:41:54;;;;;;;3.80;2.58;;;;;;;11.90;100.00;100016.84;5095650;28;20498;-66
2023/03/23 02:44:23;;;;;;;3.72;2.20;;;;;;;11.92;100.00;100011.91;5080150;28;20097;-66
2023/03/23 02:46:53;;;;;;;4.85;2.53;;;;;;;11.92;100.00;100009.16;5087491;28;20048;-67
2023/03/23 02:49:21;;;;;;;3.78;2.65;;;;;;;11.91;100.00;100002.09;5111987;28;20048;-67
2023/03/23 02:51:49;;;;;;;6.68;3.10;;;;;;;11.92;100.00;100009.16;5051138;27;20325;-67
2023/03/23 02:54:16;;;;;;;3.92;2.65;;;;;;;11.91;100.00;99998.56;5116827;27;20047;-66
2023/03/23 02:56:44;;;;;;;7.07;3.28;;;;;;;11.91;100.00;100017.66;5098772;28;20040;-66
2023/03/23 02:59:18;;;;;;;6.55;2.90;;;;;;;11.90;100.00;100013.31;5095492;28;20059;-67
2023/03/23 03:01:46;;;;;;;;;;;;;;;11.90;100.00;100014.09;5079564;28;20543;-66
2023/03/23 03:04:15;;;;;;;6.00;2.92;;;;;;;11.92;100.00;100006.44;5063378;28;19920;-66
2023/03/23 03:06:54;;;;;;;6.40;3.05;;;;;;;11.91;100.00;100018.47;5095871;28;20044;-66
2023/03/23 03:10:04;;;;;;;4.35;2.92;;;;;;;11.96;100.00;100003.94;5062050;28;20067;-66
2023/03/23 03:12:49;;;;;;;4.63;2.70;;;;;;;11.98;100.00;100000.88;5017737;28;20067;-66
2023/03/23 03:15:28;;;;;;;5.47;3.13;;;;;;;11.99;100.00;100002.53;5073576;28;20056;-66
2023/03/23 03:18:07;;;;;;;4.35;2.70;;;;;;;11.99;100.00;100013.44;5095356;28;20040;-66
2023/03/23 03:20:37;;;;;;;4.45;2.70;;;;;;;11.97;100.00;100007.47;5095444;28;20165;-66
2023/03/23 03:23:07;;;;;;;3.88;2.63;;;;;;;12.01;100.00;100013.97;5096344;28;20051;-66
2023/03/23 03:25:35;;;;;;;5.03;2.90;;;;;;;11.98;100.00;100009.91;5089038;28;20122;-66
2023/03/23 03:28:03;;;;;;;6.65;2.75;;;;;;;11.98;100.00;100014.53;5104142;28;20040;-66
2023/03/23 03:30:44;;;;;;;4.63;3.00;;;;;;;11.97;100.00;100018.38;5064590;28;20100;-67
2023/03/23 03:33:12;;;;;;;5.47;3.13;;;;;;;11.96;100.00;100027.69;5094602;28;20047;-67
2023/03/23 03:35:40;;;;;;;5.15;2.55;;;;;;;11.94;100.00;100012.41;5094880;28;20055;-67
2023/03/23 03:38:09;;;;;;;5.25;2.80;;;;;;;11.95;100.00;100015.94;5077531;28;20066;-67
2023/03/23 03:40:36;;;;;;;4.70;2.50;;;;;;;11.96;100.00;100011.31;5078182;27;20293;-67
2023/03/23 03:43:03;;;;;;;6.93;3.00;;;;;;;11.95;100.00;100024.13;5110715;27;20047;-67
2023/03/23 03:45:30;;;;;;;3.60;2.65;;;;;;;11.97;100.00;100012.94;5115193;28;20407;-68
2023/03/23 03:47:56;;;;;;;4.63;2.78;;;;;;;11.96;100.00;100014.84;5095634;27;20047;-68
2023/03/23 03:50:23;;;;;;;;;;;;;;;12.00;100.00;100024.09;5057949;28;20055;-67
2023/03/23 03:52:50;;;;;;;6.13;2.95;;;;;;;11.98;100.00;100011.81;5114970;27;19972;-67
2023/03/23 03:55:17;;;;;;;;;;;;;;;11.99;100.00;100016.97;5114287;27;20181;-68
2023/03/23 03:57:47;;;;;;;4.05;2.40;;;;;;;12.04;100.00;100014.16;5082479;28;19919;-68
2023/03/23 04:00:47;;;;;;;5.85;2.75;;;;;;;12.00;100.00;100015.91;5062454;28;20149;-68
2023/03/23 04:03:18;;;;;;;4.07;2.65;;;;;;;11.98;100.00;100014.53;5107367;27;20044;-67
2023/03/23 04:05:59;;;;;;;5.60;2.97;;;;;;;11.99;100.00;100018.91;5095369;28;20051;-67
2023/03/23 04:08:26;;;;;;;4.30;2.42;;;;;;;11.98;100.00;100028.19;5096916;28;20178;-68
2023/03/23 04:10:55;;;;;;;5.32;2.72;;;;;;;12.01;100.00;100022.97;5097038;28;20159;-67
2023/03/23 04:13:23;;;;;;;6.60;3.08;;;;;;;12.01;100.00;100022.97;5097626;27;20046;-66
2023/03/23 04:16:07;;;;;;;6.85;2.80;;;;;;;12.00;100.00;100020.53;5094607;28;20046;-68
2023/03/23 04:18:34;;;;;;;7.78;2.90;;;;;;;12.00;100.00;100020.53;5060766;27;20048;-67
2023/03/23 04:21:03;;;;;;;8.82;3.10;;;;;;;12.00;100.00;100023.25;5080458;27;20056;-67
2023/03/23 04:23:33;;;;;;;5.38;2.53;;;;;;;12.01;100.00;100022.16;5114083;27;20048;-67
2023/03/23 04:26:03;;;;;;;8.57;2.95;;;;;;;12.03;100.00;100025.41;5076724;28;20165;-66
2023/03/23 04:28:38;;;;;;;7.65;2.70;;;;;;;12.00;100.00;100026.81;5081609;28;20067;-66
2023/03/23 04:31:31;;;;;;;7.20;2.70;;;;;;;12.01;100.00;100030.34;5108078;28;20043;-66
2023/03/23 04:34:15;;;;;;;5.32;2.58;;;;;;;12.02;100.00;100034.69;5112590;27;20043;-66
2023/03/23 04:36:47;;;;;;;8.82;2.92;;;;;;;12.02;100.00;100040.16;5068006;28;20408;-66
2023/03/23 04:39:18;;;;;;;6.57;2.92;;;;;;;12.00;100.00;100042.34;5089940;28;20059;-70
2023/03/23 04:41:46;;;;;;;6.53;2.33;;;;;;;12.00;100.00;100042.34;5065230;27;20066;-66
2023/03/23 04:44:21;;;;;;;4.75;2.22;;;;;;;12.06;100.00;100049.38;5095296;28;20036;-66
2023/03/23 04:47:02;;;;;;;8.85;2.83;;;;;;;12.07;100.00;100053.72;5091392;28;20390;-66
2023/03/23 04:49:33;;;;;;;6.75;2.80;;;;;;;12.06;100.00;100052.09;5112540;28;20084;-66
2023/03/23 04:52:13;;;;;;;8.23;2.92;;;;;;;12.10;100.00;100053.16;5100818;28;20124;-66
2023/03/23 04:54:47;;;;;;;6.57;1.90;;;;;;;12.21;100.00;100043.66;5098592;28;20109;-66
2023/03/23 04:57:15;;;;;;;8.77;2.92;;;;;;;12.14;100.00;100049.50;5063596;28;20056;-67
2023/03/23 04:59:47;;;;;;;7.78;2.65;;;;;;;12.19;100.00;100051.34;5096671;28;20044;-67
2023/03/23 05:02:18;;;;;;;9.57;2.70;;;;;;;12.17;100.00;100048.13;5059199;28;20048;-70
2023/03/23 05:04:46;;;;;;;5.65;2.40;;;;;;;12.17;100.00;100050.00;5090746;28;20051;-67
2023/03/23 05:07:17;;;;;;;7.03;2.70;;;;;;;12.36;100.00;100057.09;5113485;28;20069;-68
2023/03/23 05:09:48;;;;;;;8.93;2.78;;;;;;;12.21;100.00;100054.59;5114213;28;20063;-67
2023/03/23 05:12:16;;;;;;;7.93;2.95;;;;;;;12.10;100.00;100042.22;5063230;28;20047;-67
2023/03/23 05:14:52;;;;;;;11.13;3.33;;;;;;;12.00;100.00;100053.28;5113646;28;20091;-67
2023/03/23 05:17:23;;;;;;;10.75;3.10;;;;;;;11.95;100.00;100051.44;5096578;28;20040;-67
2023/03/23 05:19:53;;;;;;;10.25;3.05;;;;;;;11.92;100.00;100052.03;5096467;28;20059;-67
2023/03/23 05:22:49;;;;;;;11.38;3.03;;;;;;;11.89;100.00;100053.44;5108068;28;20055;-67
2023/03/23 05:25:20;;;;;;;8.15;2.88;;;;;;;11.91;100.00;100045.78;5130358;28;20035;-67
2023/03/23 05:27:53;;;;;;;6.72;2.20;;;;;;;11.97;100.00;100048.41;5072738;28;20121;-67
2023/03/23 05:30:44;;;;;;;7.93;2.90;;;;;;;12.11;100.00;100049.28;5038707;28;20048;-68
2023/03/23 05:33:12;;;;;;;9.63;3.08;;;;;;;12.08;100.00;100038.97;5101865;28;20040;-68
2023/03/23 05:36:00;;;;;;;6.93;2.85;;;;;;;12.04;100.00;100048.84;5075200;28;20163;-67
2023/03/23 05:38:33;;;;;;;6.68;2.35;;;;;;;12.07;100.00;100053.72;5091907;28;20403;-67
2023/03/23 05:41:01;;;;;;;4.18;1.90;;;;;;;12.07;100.00;100048.25;5060324;28;20126;-68
2023/03/23 05:43:34;;;;;;;5.15;2.45;;;;;;;12.05;100.00;100055.94;5044190;28;20044;-66
2023/03/23 05:46:11;;;;;;;8.30;2.67;;;;;;;12.04;100.00;100059.78;5080398;28;20044;-67
2023/03/23 05:48:39;;;;;;;10.93;2.78;;;;;;;12.08;100.00;100067.09;5088795;28;20502;-67
2023/03/23 05:51:10;;;;;;;6.25;2.47;;;;;;;12.03;100.00;100064.44;5097609;28;20130;-66
2023/03/23 05:53:41;;;;;;;5.85;1.90;;;;;;;12.12;100.00;100050.91;5097371;28;20047;-69
2023/03/23 05:56:09;;;;;;;5.43;2.00;;;;;;;12.27;100.00;100049.88;5095435;28;20067;-69
2023/03/23 05:59:01;;;;;;;10.70;2.70;;;;;;;12.14;100.00;100059.63;5082099;28;20502;-68
2023/03/23 06:01:31;;;;;;;8.77;2.72;;;;;;;12.21;100.00;100070.97;5110361;28;20501;-68
2023/03/23 06:03:59;;;;;;;8.05;2.13;;;;;;;12.18;100.00;100062.56;5079052;28;20036;-67
2023/03/23 06:06:34;;;;;;;4.85;2.08;;;;;;;12.15;100.00;100061.25;5094924;28;20071;-66
2023/03/23 06:09:09;;;;;;;6.28;2.10;;;;;;;12.39;100.00;100072.06;5043592;28;20056;-65
2023/03/23 06:12:05;;;;;;;6.68;2.30;;;;;;;12.31;100.00;100070.84;5071491;28;20085;-66
2023/03/23 06:14:39;;;;;;;7.10;2.60;;;;;;;12.25;100.00;100074.75;5076384;28;20515;-66
2023/03/23 06:17:07;;;;;;;8.10;2.58;;;;;;;12.18;100.00;100068.03;5066181;28;20094;-66
2023/03/23 06:19:35;;;;;;;8.52;2.63;;;;;;;12.17;100.00;100080.06;5091179;28;20078;-67
2023/03/23 06:22:15;;;;;;;6.68;2.70;;;;;;;12.09;100.00;100085.06;5093195;28;20047;-64
2023/03/23 06:25:02;;;;;;;7.88;2.67;;;;;;;12.11;100.00;100098.44;5093679;28;20167;-65
2023/03/23 06:27:35;;;;;;;8.55;2.67;;;;;;;12.11;100.00;100101.97;5111832;28;20089;-66
2023/03/23 06:30:05;;;;;;;7.78;2.53;;;;;;;12.11;100.00;100112.09;5112489;28;20130;-66
2023/03/23 06:32:33;;;;;;;9.23;3.15;;;;;;;12.05;100.00;100116.00;5087762;28;20048;-66
2023/03/23 06:35:01;;;;;;;9.95;3.25;;;;;;;12.04;100.00;100122.56;5101331;27;20048;-65
2023/03/23 06:37:46;;;;;;;12.02;2.85;;;;;;;11.98;100.00;100121.84;5074516;28;20047;-65
2023/03/23 06:40:22;;;;;;;8.18;2.45;;;;;;;12.01;100.00;100120.44;5115681;28;20127;-65
2023/03/23 06:42:58;;;;;;;10.45;3.20;;;;;;;12.09;100.00;100122.50;5103244;27;20040;-67
2023/03/23 06:45:28;;;;;;;9.77;3.22;;;;;;;12.04;100.00;100122.56;5115583;28;20491;-65
2023/03/23 06:48:18;;;;;;;10.95;3.45;;;;;;;12.03;100.00;100134.63;5089106;27;20051;-64
2023/03/23 06:50:46;;;;;;;10.32;2.88;;;;;;;12.00;100.00;100135.19;5097593;27;20048;-66
2023/03/23 06:53:16;;;;;;;8.90;2.67;;;;;;;12.02;100.00;100138.44;5086899;28;20243;-65
2023/03/23 06:55:45;;;;;;;12.45;3.85;;;;;;;12.04;100.00;100134.31;5114166;27;20139;-64
2023/03/23 06:58:12;;;;;;;13.23;3.50;;;;;;;12.06;100.00;100134.03;4379735;28;10000582;-66
2023/03/23 07:00:40;;;;;;;9.68;3.38;;;;;;;12.12;100.00;100139.13;5091411;28;20052;-66
2023/03/23 07:03:09;;;;;;;7.78;2.67;;;;;;;12.13;100.00;100140.75;5085285;28;20060;-65
2023/03/23 07:05:40;;;;;;;9.93;2.83;;;;;;;12.08;100.00;100140.00;5075371;28;20097;-66
2023/03/23 07:08:09;;;;;;;10.82;3.05;;;;;;;11.94;100.00;100143.44;5092794;28;20044;-67
2023/03/23 07:10:49;;;;;;;13.98;3.58;;;;;;;11.88;100.00;100149.28;5076844;28;20059;-66
2023/03/23 07:13:17;;;;;;;14.63;3.22;;;;;;;11.83;100.00;100158.31;5088879;28;20122;-67
2023/03/23 07:15:50;;;;;;;10.77;3.58;;;;;;;11.79;100.00;100156.47;5075604;28;20055;-66
2023/03/23 07:18:18;;;;;;;10.95;3.22;;;;;;;11.78;100.00;100166.56;5091416;28;20483;-66
2023/03/23 07:20:49;;;;;;;9.82;2.88;;;;;;;11.78;100.00;100161.09;5074617;28;20051;-66
2023/03/23 07:23:17;;;;;;;17.95;3.00;;;;;;;11.83;100.00;100169.22;5073763;28;20130;-68
2023/03/23 07:26:01;;;;;;;10.50;2.92;;;;;;;11.87;100.00;100167.56;5062493;28;20066;-66
2023/03/23 07:28:34;;;;;;;12.18;3.22;;;;;;;11.79;100.00;100168.19;5059372;28;20059;-66
2023/03/23 07:31:09;;;;;;;9.45;2.78;;;;;;;11.81;100.00;100176.06;5088871;28;20523;-66
2023/03/23 07:33:37;;;;;;;5.63;2.40;;;;;;;11.82;100.00;100156.69;5093575;28;20055;-66
2023/03/23 07:36:06;;;;;;;9.98;2.88;;;;;;;11.89;100.00;100168.09;5101991;27;20043;-66
2023/03/23 07:38:36;;;;;;;7.97;2.92;;;;;;;12.02;100.00;100157.56;5094735;27;20102;-68
2023/03/23 07:41:05;;;;;;;9.55;3.22;;;;;;;11.92;100.00;100156.59;5057647;28;20068;-66
2023/03/23 07:43:32;;;;;;;10.18;2.90;;;;;;;11.86;100.00;100152.28;5097930;28;20048;-65
2023/03/23 07:45:59;;;;;;;10.77;3.45;;;;;;;11.82;100.00;100164.06;5094625;28;20514;-65
2023/03/23 07:48:33;;;;;;;11.20;3.40;;;;;;;11.76;100.00;100174.25;5095988;28;20044;-66
2023/03/23 07:51:00;;;;;;;19.55;4.90;;;;;;;11.89;100.00;100173.56;5091358;28;20048;-67
2023/03/23 07:53:29;;;;;;;14.05;3.80;;;;;;;11.88;100.00;100180.13;5055949;28;20134;-64
2023/03/23 07:56:19;;;;;;;12.23;3.05;;;;;;;11.90;100.00;100177.91;5100209;28;20040;-65
2023/03/23 07:58:53;;;;;;;5.00;1.77;;;;;;;11.79;100.00;100189.22;5112912;28;20039;-65
2023/03/23 08:01:21;;;;;;;9.85;2.88;;;;;;;11.68;100.00;100193.97;5094174;28;20048;-64
2023/03/23 08:04:07;;;;;;;18.42;4.97;;;;;;;11.64;100.00;100195.66;5111038;28;20454;-65
2023/03/23 08:06:52;;;;;;;8.75;2.58;;;;;;;11.63;100.00;100189.38;5112771;28;20119;-64
2023/03/23 08:09:34;;;;;;;6.97;2.47;;;;;;;11.55;100.00;100211.06;5102852;28;20446;-66
2023/03/23 08:12:28;;;;;;;4.10;2.00;;;;;;;11.49;100.00;100208.38;5102372;28;20039;-67
2023/03/23 08:15:28;;;;;;;7.50;2.13;;;;;;;11.43;100.00;100209.53;5036438;28;20051;-65
2023/03/23 08:18:13;;;;;;;4.47;1.75;;;;;;;11.42;100.00;100202.44;5079694;28;20477;-65
2023/03/23 08:21:00;;;;;;;6.82;2.47;;;;;;;11.45;100.00;100223.69;5074231;27;20427;-67
2023/03/23 08:23:33;;;;;;;4.63;1.95;;;;;;;11.42;100.00;100229.72;5110014;27;20377;-64
2023/03/23 08:26:15;;;;;;;6.47;2.08;;;;;;;11.44;100.00;100226.72;5088623;28;20047;-65
2023/03/23 08:29:03;;;;;;;19.85;4.65;;;;;;;11.55;100.00;100235.63;5057329;28;20051;-63
2023/03/23 08:31:48;;;;;;;6.47;2.38;;;;;;;11.55;100.00;100228.25;5097050;27;20153;-65
2023/03/23 08:34:37;;;;;;;5.35;2.10;;;;;;;11.56;100.00;100227.13;5098351;28;20039;-65
2023/03/23 08:37:12;;;;;;;21.95;5.38;;;;;;;11.67;100.00;100233.31;5114683;28;20043;-65
2023/03/23 08:39:57;;;;;;;8.40;2.47;;;;;;;11.62;100.00;100242.34;5109148;27;20483;-64
2023/03/23 08:42:26;;;;;;;6.93;2.20;;;;;;;11.60;100.00;100232.81;5093024;28;20040;-65
2023/03/23 08:45:19;;;;;;;15.18;4.50;;;;;;;11.69;100.00;100214.72;5074538;28;20048;-65
2023/03/23 08:48:02;;;;;;;13.57;4.05;;;;;;;11.68;100.00;100215.81;5093411;28;20490;-66
2023/03/23 08:50:41;;;;;;;19.13;5.25;;;;;;;11.71;100.00;100226.13;5105750;27;20046;-65
2023/03/23 08:53:25;;;;;;;10.95;3.67;;;;;;;11.78;100.00;100221.16;5088266;28;20059;-64
2023/03/23 08:56:15;;;;;;;14.15;3.90;;;;;;;11.83;100.00;100229.28;5069799;28;20058;-66
2023/03/23 08:59:09;;;;;;;12.77;4.07;;;;;;;11.77;100.00;100230.44;5092483;28;20047;-65
2023/03/23 09:01:41;;;;;;;9.32;3.42;;;;;;;11.76;100.00;100233.47;5093593;28;20094;-65
2023/03/23 09:04:22;;;;;;;12.93;4.43;;;;;;;11.84;100.00;100225.44;5094049;28;20054;-66
2023/03/23 09:07:10;;;;;;;8.70;3.03;;;;;;;11.82;100.00;100237.78;4403038;28;10000717;-66
2023/03/23 09:09:40;;;;;;;13.15;3.88;;;;;;;11.82;100.00;100248.69;5110075;28;20071;-66
2023/03/23 09:12:08;;;;;;;11.20;3.58;;;;;;;11.80;100.00;100240.78;5109713;28;20078;-65
2023/03/23 09:14:38;;;;;;;19.05;4.78;;;;;;;11.78;100.00;100237.53;5110809;28;20059;-66
2023/03/23 09:17:07;;;;;;;8.50;3.08;;;;;;;11.87;100.00;100235.81;5100175;28;20054;-65
2023/03/23 09:19:34;;;;;;;10.65;3.13;;;;;;;11.89;100.00;100228.16;5098921;28;20075;-65
2023/03/23 09:22:02;;;;;;;13.80;4.05;;;;;;;11.97;100.00;100214.97;5063438;28;20044;-66
2023/03/23 09:24:29;;;;;;;11.98;3.53;;;;;;;12.06;100.00;100205.03;5074790;28;20050;-64
2023/03/23 09:26:55;;;;;;;9.10;3.10;;;;;;;12.14;100.00;100218.00;5100109;28;20066;-66
2023/03/23 09:29:22;;;;;;;8.90;2.50;;;;;;;12.00;100.00;100228.84;5098841;28;20048;-66
2023/03/23 09:31:49;;;;;;;12.05;3.35;;;;;;;12.05;100.00;100228.78;5103290;28;20051;-68
2023/03/23 09:34:16;;;;;;;;;;;;;;;12.00;100.00;100249.84;5078425;28;20098;-66
2023/03/23 09:36:44;;;;;;;11.10;3.22;;;;;;;12.03;100.00;100249.28;5092079;28;20002;-65
2023/03/23 09:39:11;;;;;;;7.07;2.60;;;;;;;11.97;100.00;100245.00;5074327;28;20101;-64
2023/03/23 09:41:38;;;;;;;7.63;2.40;;;;;;;11.90;100.00;100248.88;5092145;28;20472;-64
2023/03/23 09:44:32;;;;;;;13.65;4.45;;;;;;;12.01;100.00;100251.50;5101795;28;20043;-64
2023/03/23 09:47:23;;;;;;;6.47;2.63;;;;;;;12.04;100.00;100261.84;5118954;27;20066;-64
2023/03/23 09:49:51;;;;;;;13.65;4.10;;;;;;;12.01;100.00;100262.44;5112251;28;20070;-64
2023/03/23 09:52:19;;;;;;;9.07;3.63;;;;;;;12.04;100.00;100267.28;5077938;28;20048;-66
2023/03/23 09:54:51;;;;;;;6.47;2.53;;;;;;;12.08;100.00;100262.88;5059166;28;20088;-65
2023/03/23 09:57:33;;;;;;;10.63;2.97;;;;;;;12.06;100.00;100267.81;5105875;28;20061;-65
2023/03/23 10:00:09;;;;;;;7.50;2.70;;;;;;;11.99;100.00;100265.44;5103254;28;20048;-66
2023/03/23 10:02:50;;;;;;;11.07;2.80;;;;;;;11.92;100.00;100265.78;5076731;28;20454;-66
2023/03/23 10:05:33;;;;;;;9.68;2.70;;;;;;;11.92;100.00;100273.97;5100743;28;20051;-66
2023/03/23 10:08:01;;;;;;;6.35;2.63;;;;;;;11.93;100.00;100272.88;5083166;28;20044;-64
2023/03/23 10:11:04;;;;;;;10.63;3.13;;;;;;;12.08;100.00;100280.06;5062315;28;20503;-64
2023/03/23 10:14:04;;;;;;;8.77;2.50;;;;;;;12.14;100.00;100275.34;5051226;28;20154;-64
2023/03/23 10:16:47;;;;;;;10.60;4.05;;;;;;;12.29;100.00;100274.34;5116413;27;20053;-66
2023/03/23 10:19:17;;;;;;;8.20;2.78;;;;;;;12.27;100.00;100276.59;5100127;28;20048;-64
2023/03/23 10:21:56;;;;;;;9.00;2.90;;;;;;;12.29;100.00;100277.91;5097314;28;20137;-64
2023/03/23 10:24:35;;;;;;;8.88;3.00;;;;;;;12.35;100.00;100278.66;5096331;28;20484;-64
2023/03/23 10:27:16;;;;;;;10.50;2.80;;;;;;;12.39;100.00;100284.31;5085460;28;20044;-68
2023/03/23 10:30:13;;;;;;;7.80;2.95;;;;;;;12.39;100.00;100287.06;5107866;28;20114;-65
2023/03/23 10:32:44;;;;;;;7.75;2.38;;;;;;;12.41;100.00;100293.88;5093694;28;20264;-64
2023/03/23 10:35:19;;;;;;;7.30;2.83;;;;;;;12.43;100.00;100290.84;5119095;28;20051;-65
2023/03/23 10:37:56;;;;;;;11.32;2.85;;;;;;;12.41;100.00;100290.31;5096942;28;20050;-65
2023/03/23 10:40:26;;;;;;;7.80;2.67;;;;;;;12.38;100.00;100288.97;5101305;27;20051;-66
2023/03/23 10:42:54;;;;;;;7.47;2.67;;;;;;;12.41;100.00;100303.97;5135852;27;20123;-64
2023/03/23 10:45:32;;;;;;;8.80;2.90;;;;;;;12.41;100.00;100303.97;5117078;27;20048;-64
2023/03/23 10:48:19;;;;;;;7.95;2.88;;;;;;;12.42;100.00;100303.69;5104242;28;20058;-63
2023/03/23 10:50:49;;;;;;;10.90;3.17;;;;;;;12.44;100.00;100309.69;5100870;28;20100;-65
2023/03/23 10:53:24;;;;;;;8.35;3.10;;;;;;;12.45;100.00;100300.38;5099203;28;20047;-64
2023/03/23 10:55:54;;;;;;;8.05;2.75;;;;;;;12.44;100.00;100292.47;5095635;28;20054;-65
2023/03/23 10:58:29;;;;;;;11.75;3.20;;;;;;;12.44;100.00;100308.88;5045727;28;20078;-65
2023/03/23 11:00:56;;;;;;;12.27;3.10;;;;;;;12.52;100.00;100297.28;5095423;28;20036;-65
2023/03/23 11:03:28;;;;;;;12.77;3.03;;;;;;;12.56;100.00;100306.53;5083809;28;20446;-65
2023/03/23 11:06:03;;;;;;;9.45;3.22;;;;;;;12.74;100.00;100293.97;5106268;27;20544;-65
2023/03/23 11:08:35;;;;;;;9.57;3.42;;;;;;;12.87;100.00;100293.25;5112697;27;20062;-65
2023/03/23 11:11:18;;;;;;;16.60;4.88;;;;;;;12.94;100.00;100290.09;5115721;28;20055;-65
2023/03/23 11:13:46;;;;;;;11.85;3.75;;;;;;;12.87;99.40;100281.47;5113577;28;20039;-66
2023/03/23 11:16:30;;;;;;;8.55;2.90;;;;;;;12.97;100.00;100281.34;5080892;28;20119;-66
2023/03/23 11:18:58;;;;;;;12.85;4.05;;;;;;;13.04;100.00;100279.03;5098241;28;20392;-66
2023/03/23 11:21:27;;;;;;;10.48;3.40;;;;;;;13.02;99.47;100273.03;5115074;28;20044;-65
2023/03/23 11:23:58;;;;;;;11.63;3.80;;;;;;;12.99;99.55;100273.66;5092949;28;20537;-64
2023/03/23 11:26:33;;;;;;;7.95;3.33;;;;;;;12.95;99.02;100286.28;5078068;28;20104;-65
2023/03/23 11:29:05;;;;;;;10.57;3.28;;;;;;;12.98;99.79;100286.47;5105890;28;20120;-64
2023/03/23 11:31:38;;;;;;;8.43;3.00;;;;;;;13.08;100.00;100296.44;5078177;28;20036;-65
2023/03/23 11:34:10;;;;;;;11.23;3.78;;;;;;;13.09;98.67;100298.09;5115720;27;20043;-64
2023/03/23 11:36:48;;;;;;;8.73;2.92;;;;;;;13.07;99.57;100299.50;5135700;27;20414;-64
2023/03/23 11:39:22;;;;;;;8.95;2.92;;;;;;;13.02;95.74;100302.31;5135322;27;20473;-65
2023/03/23 11:41:48;;;;;;;13.88;3.42;;;;;;;12.97;95.87;100289.53;5117936;27;20167;-67
2023/03/23 11:44:16;;;;;;;6.90;2.70;;;;;;;12.95;96.48;100297.22;5126693;27;20073;-64
2023/03/23 11:47:08;;;;;;;15.32;3.83;;;;;;;13.06;98.60;100303.34;5098123;28;20051;-64